Chesterfield, MA (01012)

5:03 AM EDT on September 01, 2014 (GMT -0400)
Chesterfield | Change Station
CLOSE
Current Station
Personal Weather Station
Location: Chesterfield, MA
Elevation: 1190 ft
Nearby Weather Stations

Elev 1190 ft 42.36 °N, 72.85 °W | Updated 7 minutes ago

Mostly Cloudy
Mostly Cloudy
67.0 °F
Feels Like 67.0 °F
N
0.0
Wind Variable Wind from WNW
Gusts 0.0 mph

Today
High -- | Low -- °F
--% Chance of Precip.
Yesterday
High -- | Low -- °F
Precip. -- in
6:16 AM 7:25 PM
Waxing Crescent, 39% visible
Pressure 29.97 in
Visibility 0.2 miles
Clouds
Dew Point 67 °F
Humidity 98%
Rainfall 0.00 in
Snow Depth Not available.
UV Not available.
Pollen 7.80 out of 12
Air Quality Not available.
Flu Activity Not available.
METAR KBAF 010853Z 00000KT 1/4SM R20/2800V3500FT FG VV002 20/19 A2997 RMK AO2 SLP148 T02000194 51004

More Conditions Fewer Conditions

Pressure 29.97 in
Visibility 0.2 miles
Clouds
Dew Point 67 °F
Humidity 98%
Rainfall 0.00 in
Snow Depth Not available.
UV Not available.
Pollen 7.80 out of 12
Air Quality Not available.
Flu Activity Not available.
METAR KBAF 010853Z 00000KT 1/4SM R20/2800V3500FT FG VV002 20/19 A2997 RMK AO2 SLP148 T02000194 51004

More Conditions Fewer Conditions

10-Day Weather Forecast

Almanac

Astronomy

Sep. 01, 2014 Rise Set
Actual Time 6:16 AM EDT 7:25 PM EDT
Civil Twilight 5:47 AM EDT 7:54 PM EDT
Nautical Twilight 5:12 AM EDT 8:28 PM EDT
Astronomical Twilight 4:36 AM EDT 9:04 PM EDT
Moon 1:07 PM EDT 11:16 PM EDT
Length of Visible Light 14h 06m
Length of Day
13h 08m
Tomorrow will be 2m 45s shorter.
Waxing Crescent, 39% of the Moon is Illuminated
Today
Waxing Crescent
Sep 2
First Quarter
Sep 8
Full
Sep 15
Last Quarter
Sep 24
New

Today's Extremes

State Highs State Lows

Community

WunderPhotos

Upload Photos

1,749,178 photos uploaded!

Nearby

Air Quality

  Air Quality AQ Index Pollutant
Yesterday Good
OZONE
Yesterday Good
PM2.5
Monday Moderate
PM2.5
Monday Good
OZONE
Tuesday Moderate
PM2.5
Tuesday Good
OZONE

Snow Depth

Station Depth Elevation
No new snow has been reported.

Earthquake Activity

City Distance Mag. Time & Date
No recent earthquake activity has been reported nearby.
Minimum magnitude displayed is 2.5.

Coastal Water Temperatures

Place Temperature
No Stations Reporting

Nearby Weather Stations